Time;durP1;ratioP1;P1;durP2;ratioP2;P2;SDS_P1;SDS_P2;PMS_P1;PMS_P2;Temp;Humidity;BMP_temperature;BMP_pressure;BME280_temperature;BME280_humidity;BME280_pressure;Samples;Min_cycle;Max_cycle;Signal;HPM_P1;HPM_P2
2022/06/23 00:00:33;;;;;;;;;26.00;23.67;;;;;-146.44;100.00;58906.56;5094017;27;45509;-59
2022/06/23 00:03:01;;;;;;;;;22.33;21.33;;;;;-146.44;100.00;58906.56;5092145;27;45431;-60
2022/06/23 00:05:39;;;;;;;;;22.33;22.33;;;;;-146.44;100.00;58906.56;5073086;28;45690;-58
2022/06/23 00:08:13;;;;;;;;;18.67;18.67;;;;;-146.44;100.00;58906.56;5055164;28;45443;-59
2022/06/23 00:10:51;;;;;;;;;23.33;22.33;;;;;-146.44;100.00;58906.56;5073615;28;45465;-58
2022/06/23 00:13:25;;;;;;;;;20.33;20.33;;;;;-146.44;100.00;58906.56;5073855;27;45585;-58
2022/06/23 00:15:52;;;;;;;;;22.33;20.67;;;;;-146.44;100.00;58906.56;5088054;27;46258;-58
2022/06/23 00:18:24;;;;;;;;;22.33;21.33;;;;;-146.44;100.00;58906.56;5093690;27;45492;-58
2022/06/23 00:20:58;;;;;;;;;24.67;24.33;;;;;-146.44;100.00;58906.56;5097251;27;45838;-58
2022/06/23 00:23:31;;;;;;;;;17.33;17.33;;;;;-146.44;100.00;58906.56;5082413;27;45506;-58
2022/06/23 00:26:14;;;;;;;;;21.33;21.33;;;;;-146.44;100.00;58906.56;5076581;28;45552;-58
2022/06/23 00:29:15;;;;;;;;;22.67;22.67;;;;;-146.44;100.00;58906.56;5076727;28;45487;-58
2022/06/23 00:31:43;;;;;;;;;24.67;23.00;;;;;-146.44;100.00;58906.56;5048604;28;45480;-58
2022/06/23 00:34:24;;;;;;;;;21.67;20.67;;;;;-146.44;100.00;58906.56;5076818;28;45508;-58
2022/06/23 00:37:00;;;;;;;;;22.33;22.33;;;;;-146.44;100.00;58906.56;5074415;27;47161;-58
2022/06/23 00:39:36;;;;;;;;;21.67;19.67;;;;;-146.44;100.00;58906.56;5076472;28;45522;-59
2022/06/23 00:42:25;;;;;;;;;21.33;21.33;;;;;-146.44;100.00;58906.56;5076158;28;45450;-58
2022/06/23 00:44:58;;;;;;;;;17.67;17.67;;;;;-146.44;100.00;58906.56;5058091;28;45466;-59
2022/06/23 00:47:45;;;;;;;;;21.00;20.33;;;;;-146.44;100.00;58906.56;5076053;28;46531;-58
2022/06/23 00:50:33;;;;;;;;;24.00;22.67;;;;;-146.44;100.00;58906.56;5058164;28;45420;-58
2022/06/23 00:53:13;;;;;;;;;24.33;21.67;;;;;-146.44;100.00;58906.56;5076492;27;45491;-59
2022/06/23 00:55:58;;;;;;;;;20.00;20.00;;;;;-146.44;100.00;58906.56;5096823;27;45482;-59
2022/06/23 00:59:02;;;;;;;;;22.33;22.33;;;;;-146.44;100.00;58906.56;5096055;27;45490;-58
2022/06/23 01:01:40;;;;;;;;;21.67;21.67;;;;;-146.44;100.00;58906.56;4993134;28;45444;-58
2022/06/23 01:04:17;;;;;;;;;22.67;21.33;;;;;-146.44;100.00;58906.56;4993626;28;45683;-58
2022/06/23 01:07:11;;;;;;;;;23.33;23.00;;;;;-146.44;100.00;58906.56;5058146;27;45590;-58
2022/06/23 01:09:45;;;;;;;;;25.67;24.00;;;;;-146.44;100.00;58906.56;5096245;27;45554;-58
2022/06/23 01:12:46;;;;;;;;;26.33;23.00;;;;;-146.44;100.00;58906.56;5096294;27;45514;-59
2022/06/23 01:15:23;;;;;;;;;21.33;20.67;;;;;-146.44;100.00;58906.56;5089674;27;45569;-59
2022/06/23 01:17:56;;;;;;;;;21.67;21.67;;;;;-146.44;100.00;58906.56;5096147;27;45466;-59
2022/06/23 01:20:29;;;;;;;;;26.00;26.00;;;;;-146.44;100.00;58906.56;5096040;27;45729;-59
2022/06/23 01:23:22;;;;;;;;;25.33;25.33;;;;;-146.44;100.00;58906.56;5085838;27;45634;-58
2022/06/23 01:26:08;;;;;;;;;22.33;22.33;;;;;-146.44;100.00;58906.56;5096178;27;45469;-58
2022/06/23 01:28:41;;;;;;;;;22.00;21.33;;;;;-146.44;100.00;58906.56;5094937;27;45623;-58
2022/06/23 01:31:15;;;;;;;;;29.33;28.33;;;;;-146.44;100.00;58906.56;5095593;27;45670;-59
2022/06/23 01:34:02;;;;;;;;;21.00;20.33;;;;;-146.44;100.00;58906.56;5096086;27;45476;-58
2022/06/23 01:36:44;;;;;;;;;25.67;22.00;;;;;-146.44;100.00;58906.56;5089990;27;45467;-59
2022/06/23 01:39:21;;;;;;;;;22.33;22.33;;;;;-146.44;100.00;58906.56;5075611;28;45557;-59
2022/06/23 01:41:59;;;;;;;;;24.33;23.33;;;;;-146.44;100.00;58906.56;5076488;27;45544;-58
2022/06/23 01:44:51;;;;;;;;;24.00;22.67;;;;;-146.44;100.00;58906.56;5075584;27;45464;-58
2022/06/23 01:47:38;;;;;;;;;24.67;23.67;;;;;-146.44;100.00;58906.56;5075369;28;45593;-59
2022/06/23 01:50:13;;;;;;;;;26.33;25.67;;;;;-146.44;100.00;58906.56;5075489;28;45458;-59
2022/06/23 01:52:45;;;;;;;;;24.00;24.00;;;;;-146.44;100.00;58906.56;5075256;28;45510;-60
2022/06/23 01:55:26;;;;;;;;;27.00;27.00;;;;;-146.44;100.00;58906.56;5057235;28;45444;-58
2022/06/23 01:58:02;;;;;;;;;28.00;26.00;;;;;-146.44;100.00;58906.56;5075402;28;45588;-58
2022/06/23 02:00:28;;;;;;;;;27.33;25.33;;;;;-146.44;100.00;58906.56;5092779;27;45599;-58
2022/06/23 02:03:32;;;;;;;;;25.33;24.33;;;;;-146.44;100.00;58906.56;5095453;27;45525;-58
2022/06/23 02:06:15;;;;;;;;;26.67;26.00;;;;;-146.44;100.00;58906.56;5092821;27;45481;-58
2022/06/23 02:08:51;;;;;;;;;24.67;24.33;;;;;-146.44;100.00;58906.56;5095914;27;45599;-59
2022/06/23 02:11:37;;;;;;;;;32.00;29.67;;;;;-146.44;100.00;58906.56;5095577;27;45510;-59
2022/06/23 02:14:19;;;;;;;;;28.67;26.33;;;;;-146.44;100.00;58906.56;5095496;27;45518;-58
2022/06/23 02:17:15;;;;;;;;;24.67;23.33;;;;;-146.44;100.00;58906.56;5095482;27;45581;-59
2022/06/23 02:19:46;;;;;;;;;26.33;25.33;;;;;-146.44;100.00;58906.56;5095595;27;45391;-59
2022/06/23 02:22:38;;;;;;;;;27.00;26.67;;;;;-146.44;100.00;58906.56;5095025;27;45383;-58
2022/06/23 02:25:09;;;;;;;;;23.67;23.00;;;;;-146.44;100.00;58906.56;5095143;27;46704;-58
2022/06/23 02:27:44;;;;;;;;;16.33;16.00;;;;;-146.44;100.00;58906.56;5095061;27;45504;-58
2022/06/23 02:30:31;;;;;;;;;20.67;20.67;;;;;-146.44;100.00;58906.56;5095436;27;45375;-58
2022/06/23 02:33:12;;;;;;;;;19.00;19.00;;;;;-146.44;100.00;58906.56;5094347;27;45383;-58
2022/06/23 02:35:47;;;;;;;;;20.33;18.67;;;;;-146.44;100.00;58906.56;5095052;27;46133;-59
2022/06/23 02:38:40;;;;;;;;;17.67;16.33;;;;;-146.44;100.00;58906.56;5095115;27;45554;-59
2022/06/23 02:41:22;;;;;;;;;16.00;14.75;;;;;-146.44;100.00;58906.56;5093705;27;45635;-60
2022/06/23 02:43:57;;;;;;;;;10.50;10.25;;;;;-146.44;100.00;58906.56;5095079;27;45581;-59
2022/06/23 02:47:00;;;;;;;;;11.00;11.00;;;;;-146.44;100.00;58906.56;5086900;27;46620;-60
2022/06/23 02:49:46;;;;;;;;;7.00;7.00;;;;;-146.44;100.00;58906.56;5074388;28;45505;-59
2022/06/23 02:53:00;;;;;;;;;6.50;6.50;;;;;-146.44;100.00;58906.56;5095039;27;45448;-59
2022/06/23 02:55:56;;;;;;;;;7.75;6.00;;;;;-146.44;100.00;58906.56;4991944;28;45576;-59
2022/06/23 02:58:42;;;;;;;;;6.00;6.00;;;;;-146.44;100.00;58906.56;5094840;27;45533;-59
2022/06/23 03:01:23;;;;;;;;;6.00;4.75;;;;;-146.44;100.00;58906.56;5094822;27;45781;-57
2022/06/23 03:03:57;;;;;;;;;3.00;3.00;;;;;-146.44;100.00;58906.56;5095046;27;45447;-58
2022/06/23 03:06:43;;;;;;;;;3.00;3.00;;;;;-146.44;100.00;58906.56;5078196;27;45526;-59
2022/06/23 03:09:18;;;;;;;;;3.50;3.50;;;;;-146.44;100.00;58906.56;5074028;28;45621;-58
2022/06/23 03:11:54;;;;;;;;;4.50;3.00;;;;;-146.44;100.00;58906.56;5075554;27;45514;-58
2022/06/23 03:14:52;;;;;;;;;3.50;3.50;;;;;-146.44;100.00;58906.56;5094752;27;45405;-59
2022/06/23 03:17:32;;;;;;;;;2.50;2.50;;;;;-146.44;100.00;58906.56;5038124;27;45587;-59
2022/06/23 03:20:10;;;;;;;;;3.75;3.75;;;;;-146.44;100.00;58906.56;5094561;27;46670;-59
2022/06/23 03:22:36;;;;;;;;;2.25;2.25;;;;;-146.44;100.00;58906.56;5078092;27;45477;-59
2022/06/23 03:25:11;;;;;;;;;3.25;3.25;;;;;-146.44;100.00;58906.56;5081548;27;45472;-59
2022/06/23 03:27:41;;;;;;;;;4.75;4.00;;;;;-146.44;100.00;58906.56;5094570;27;45457;-59
2022/06/23 03:30:36;;;;;;;;;5.25;4.00;;;;;-146.44;100.00;58906.56;5094307;27;46749;-59
2022/06/23 03:33:16;;;;;;;;;2.75;2.75;;;;;-146.44;100.00;58906.56;5073222;27;45419;-60
2022/06/23 03:35:49;;;;;;;;;2.50;2.50;;;;;-146.44;100.00;58906.56;5094756;27;45509;-59
2022/06/23 03:41:36;;;;;;;;;3.75;3.75;;;;;-146.44;100.00;58906.56;5091512;27;45538;-59
2022/06/23 03:44:34;;;;;;;;;5.25;4.25;;;;;-146.44;100.00;58906.56;5094227;27;45456;-59
2022/06/23 03:47:06;;;;;;;;;4.00;3.00;;;;;-146.44;100.00;58906.56;5094197;27;45644;-60
2022/06/23 03:49:43;;;;;;;;;4.00;4.00;;;;;-146.44;100.00;58906.56;5094581;27;45553;-59
2022/06/23 03:52:41;;;;;;;;;5.50;4.00;;;;;-146.44;100.00;58906.56;5094145;27;45809;-60
2022/06/23 03:55:27;;;;;;;;;4.00;4.00;;;;;-146.44;100.00;58906.56;5097595;27;45391;-60
2022/06/23 03:58:01;;;;;;;;;3.00;3.00;;;;;-146.44;100.00;58906.56;5097839;27;45532;-59
2022/06/23 04:00:35;;;;;;;;;3.50;3.50;;;;;-146.44;100.00;58906.56;5097866;27;45434;-59
2022/06/23 04:03:14;;;;;;;;;4.25;4.25;;;;;-146.44;100.00;58906.56;5097475;27;46163;-59
2022/06/23 04:05:55;;;;;;;;;5.50;4.00;;;;;-146.44;100.00;58906.56;5079065;27;45447;-59
2022/06/23 04:08:26;;;;;;;;;4.50;4.50;;;;;-146.44;100.00;58906.56;5097093;27;45592;-59
2022/06/23 04:10:56;;;;;;;;;5.00;5.00;;;;;-146.44;100.00;58906.56;5095058;27;45498;-59
2022/06/23 04:13:34;;;;;;;;;4.00;4.00;;;;;-146.44;100.00;58906.56;5076755;28;46563;-60
2022/06/23 04:16:05;;;;;;;;;5.00;4.00;;;;;-146.44;100.00;58906.56;5077021;28;45517;-60
2022/06/23 04:18:32;;;;;;;;;4.00;3.00;;;;;-146.44;100.00;58906.56;5077314;27;45999;-59
2022/06/23 04:21:07;;;;;;;;;4.50;4.50;;;;;-146.44;100.00;58906.56;5076908;28;45493;-60
2022/06/23 04:23:36;;;;;;;;;5.50;4.50;;;;;-146.44;100.00;58906.56;5076544;28;45505;-59
2022/06/23 04:26:07;;;;;;;;;4.00;3.75;;;;;-146.44;100.00;58906.56;5076743;28;45579;-59
2022/06/23 04:28:55;;;;;;;;;2.50;2.50;;;;;-146.44;100.00;58906.56;5076817;28;45463;-59
2022/06/23 04:31:38;;;;;;;;;2.50;2.50;;;;;-146.44;100.00;58906.56;5076811;28;45404;-59
2022/06/23 04:34:04;;;;;;;;;2.75;2.75;;;;;-146.44;100.00;58906.56;5097213;27;45575;-59
2022/06/23 04:36:33;;;;;;;;;4.00;3.75;;;;;-146.44;100.00;58906.56;5096816;27;45481;-62
2022/06/23 04:39:08;;;;;;;;;5.00;4.00;;;;;-146.44;100.00;58906.56;5097148;27;45536;-59
2022/06/23 04:41:48;;;;;;;;;4.75;4.25;;;;;-146.44;100.00;58906.56;5096808;27;45461;-59
2022/06/23 04:44:27;;;;;;;;;2.75;2.00;;;;;-146.44;100.00;58906.56;5087504;27;46644;-59
2022/06/23 04:46:58;;;;;;;;;4.00;3.25;;;;;-146.44;100.00;58906.56;5086276;27;45577;-59
2022/06/23 04:49:40;;;;;;;;;5.25;3.25;;;;;-146.44;100.00;58906.56;5096907;27;45461;-59
2022/06/23 04:52:24;;;;;;;;;3.00;2.50;;;;;-146.44;100.00;58906.56;5096882;27;45414;-59
2022/06/23 04:54:57;;;;;;;;;3.75;3.75;;;;;-146.44;100.00;58906.56;5096563;27;45475;-59
2022/06/23 04:57:33;;;;;;;;;4.25;3.75;;;;;-146.44;100.00;58906.56;5096710;27;45463;-58
2022/06/23 05:00:02;;;;;;;;;3.00;3.00;;;;;-146.44;100.00;58906.56;5096898;27;45371;-58
2022/06/23 05:02:27;;;;;;;;;3.75;3.75;;;;;-146.44;100.00;58906.56;5080179;27;45641;-59
2022/06/23 05:05:18;;;;;;;;;3.50;3.50;;;;;-146.44;100.00;58906.56;5075182;28;46231;-59
2022/06/23 05:07:58;;;;;;;;;4.00;4.00;;;;;-146.44;100.00;58906.56;5075971;28;45445;-59
2022/06/23 05:10:29;;;;;;;;;5.00;5.00;;;;;-146.44;100.00;58906.56;5076119;28;45507;-59
2022/06/23 05:13:17;;;;;;;;;5.00;4.00;;;;;-146.44;100.00;58906.56;5076010;28;45619;-58
2022/06/23 05:16:06;;;;;;;;;3.50;3.50;;;;;-146.44;100.00;58906.56;5077117;27;46383;-58
2022/06/23 05:18:38;;;;;;;;;4.00;4.00;;;;;-146.44;100.00;58906.56;5076224;27;45503;-59
2022/06/23 05:21:27;;;;;;;;;3.00;3.00;;;;;-146.44;100.00;58906.56;5075933;28;45995;-59
2022/06/23 05:24:08;;;;;;;;;4.00;4.00;;;;;-146.44;100.00;58906.56;5076039;28;45477;-59
2022/06/23 05:26:43;;;;;;;;;3.50;3.50;;;;;-146.44;100.00;58906.56;5074236;28;46503;-59
2022/06/23 05:29:27;;;;;;;;;5.00;5.00;;;;;-146.44;100.00;58906.56;5076045;28;45453;-59
2022/06/23 05:32:10;;;;;;;;;4.25;3.00;;;;;-146.44;100.00;58906.56;5077668;27;45460;-63
2022/06/23 05:34:46;;;;;;;;;5.00;4.00;;;;;-146.44;100.00;58906.56;5096657;27;45391;-63
2022/06/23 05:37:28;;;;;;;;;5.50;5.00;;;;;-146.44;100.00;58906.56;5096704;27;46926;-63
2022/06/23 05:40:26;;;;;;;;;4.00;4.00;;;;;-146.44;100.00;58906.56;5076477;27;45441;-63
2022/06/23 05:42:55;;;;;;;;;5.00;4.25;;;;;-146.44;100.00;58906.56;5075061;28;45514;-63
2022/06/23 05:45:26;;;;;;;;;6.00;6.00;;;;;-146.44;100.00;58906.56;5082006;27;45522;-64
2022/06/23 05:47:53;;;;;;;;;4.25;4.25;;;;;-146.44;100.00;58906.56;5075798;28;45481;-64
2022/06/23 05:50:24;;;;;;;;;8.50;6.75;;;;;-146.44;100.00;58906.56;5057805;28;45487;-65
2022/06/23 05:52:58;;;;;;;;;7.00;7.00;;;;;-146.44;100.00;58906.56;5096284;27;45553;-64
2022/06/23 05:56:01;;;;;;;;;4.75;4.50;;;;;-146.44;100.00;58906.56;5095892;27;45442;-64
2022/06/23 05:58:47;;;;;;;;;7.00;7.00;;;;;-146.44;100.00;58906.56;5043423;27;46389;-64
2022/06/23 06:01:27;;;;;;;;;6.00;6.00;;;;;-146.44;100.00;58906.56;5095297;27;45440;-64
2022/06/23 06:04:09;;;;;;;;;5.00;5.00;;;;;-146.44;100.00;58906.56;5079633;27;45445;-65
2022/06/23 06:06:37;;;;;;;;;6.25;5.50;;;;;-146.44;100.00;58906.56;5095648;27;45590;-62
2022/06/23 06:11:52;;;;;;;;;7.25;7.25;;;;;-146.44;100.00;58906.56;5075007;28;45538;-64
2022/06/23 06:14:21;;;;;;;;;9.25;9.25;;;;;-146.44;100.00;58906.56;5075039;28;45443;-63
2022/06/23 06:16:47;;;;;;;;;6.75;6.75;;;;;-146.44;100.00;58906.56;5079414;27;45557;-62
2022/06/23 06:19:16;;;;;;;;;8.25;5.50;;;;;-146.44;100.00;58906.56;5074503;27;45644;-63
2022/06/23 06:21:42;;;;;;;;;7.00;7.00;;;;;-146.44;100.00;58906.56;5086884;27;45517;-64
2022/06/23 06:24:20;;;;;;;;;9.75;8.00;;;;;-146.44;100.00;58906.56;5075901;27;45596;-66
2022/06/23 06:26:51;;;;;;;;;8.25;8.00;;;;;-146.44;100.00;58906.56;5074689;28;45979;-66
2022/06/23 06:29:22;;;;;;;;;2.00;1.50;;;;;-146.44;100.00;58906.56;5074840;28;45535;-66
2022/06/23 06:31:53;;;;;;;;;6.50;6.50;;;;;-146.44;100.00;58906.56;5074737;28;45415;-65
2022/06/23 06:34:26;;;;;;;;;7.00;7.00;;;;;-146.44;100.00;58906.56;5074742;28;45596;-65
2022/06/23 06:36:53;;;;;;;;;8.25;8.25;;;;;-146.44;100.00;58906.56;5074651;28;45466;-64
2022/06/23 06:39:27;;;;;;;;;7.50;7.50;;;;;-146.44;100.00;58906.56;5074451;28;45539;-66
2022/06/23 06:42:00;;;;;;;;;7.00;7.00;;;;;-146.44;100.00;58906.56;5074050;28;45485;-67
2022/06/23 06:44:26;;;;;;;;;7.75;7.75;;;;;-146.44;100.00;58906.56;5074627;28;45563;-65
2022/06/23 06:46:53;;;;;;;;;6.75;5.75;;;;;-146.44;100.00;58906.56;5074467;28;45368;-66
2022/06/23 06:49:21;;;;;;;;;7.75;7.50;;;;;-146.44;100.00;58906.56;5074311;28;45542;-66
2022/06/23 06:51:50;;;;;;;;;8.00;8.00;;;;;-146.44;100.00;58906.56;5074559;28;45485;-65
2022/06/23 06:54:21;;;;;;;;;9.00;9.00;;;;;-146.44;100.00;58906.56;5074490;28;45415;-66
2022/06/23 06:57:01;;;;;;;;;7.75;7.75;;;;;-146.44;100.00;58906.56;5074425;28;45435;-66
2022/06/23 06:59:44;;;;;;;;;6.50;6.50;;;;;-146.44;100.00;58906.56;5074002;28;45572;-65
2022/06/23 07:02:17;;;;;;;;;6.75;6.75;;;;;-146.44;100.00;58906.56;5074099;28;45633;-65
2022/06/23 07:04:56;;;;;;;;;8.00;6.25;;;;;-146.44;100.00;58906.56;5056043;28;45493;-66
2022/06/23 07:07:29;;;;;;;;;7.00;6.00;;;;;-146.44;100.00;58906.56;5074501;28;45581;-65
2022/06/23 07:10:20;;;;;;;;;5.50;5.50;;;;;-146.44;100.00;58906.56;5073977;28;45570;-67
2022/06/23 07:12:53;;;;;;;;;6.50;5.25;;;;;-146.44;100.00;58906.56;5073865;28;45491;-65
2022/06/23 07:15:31;;;;;;;;;5.75;5.75;;;;;-146.44;100.00;58906.56;5073978;28;45447;-65
2022/06/23 07:18:04;;;;;;;;;8.75;7.00;;;;;-146.44;100.00;58906.56;5055792;28;45633;-65
2022/06/23 07:20:55;;;;;;;;;7.00;7.00;;;;;-146.44;100.00;58906.56;5055380;28;46386;-67
2022/06/23 07:23:57;;;;;;;;;5.75;5.75;;;;;-146.44;100.00;58906.56;5073501;28;45415;-65
2022/06/23 07:27:14;;;;;;;;;9.00;8.00;;;;;-146.44;100.00;58906.56;5073651;28;45517;-65
2022/06/23 07:30:00;;;;;;;;;7.25;7.25;;;;;-146.44;100.00;58906.56;5034101;28;45427;-65
2022/06/23 07:32:40;;;;;;;;;6.25;6.25;;;;;-146.44;100.00;58906.56;5077360;28;46263;-65
2022/06/23 07:35:38;;;;;;;;;7.75;6.75;;;;;-146.44;100.00;58906.56;5077117;28;45427;-66
2022/06/23 07:38:20;;;;;;;;;8.00;8.00;;;;;-146.44;100.00;58906.56;5077433;28;45435;-65
2022/06/23 07:40:54;;;;;;;;;7.00;7.00;;;;;-146.44;100.00;58906.56;5077392;28;45476;-66
2022/06/23 07:43:34;;;;;;;;;5.75;5.75;;;;;-146.44;100.00;58906.56;5077284;28;46850;-64
2022/06/23 07:46:01;;;;;;;;;9.25;6.75;;;;;-146.44;100.00;58906.56;5077130;28;45392;-65
2022/06/23 07:48:29;;;;;;;;;10.00;9.00;;;;;-146.44;100.00;58906.56;5077251;28;45382;-65
2022/06/23 07:50:56;;;;;;;;;5.75;5.75;;;;;-146.44;100.00;58906.56;5076602;28;45561;-65
2022/06/23 07:53:28;;;;;;;;;9.00;9.00;;;;;-146.44;100.00;58906.56;5076356;28;46817;-65
2022/06/23 07:55:54;;;;;;;;;8.50;7.50;;;;;-146.44;100.00;58906.56;5077588;28;45549;-65
2022/06/23 07:58:27;;;;;;;;;8.50;7.25;;;;;-146.44;100.00;58906.56;5077632;28;45473;-66
2022/06/23 08:01:02;;;;;;;;;9.50;6.75;;;;;-146.44;100.00;58906.56;5077440;28;45418;-65
2022/06/23 08:03:40;;;;;;;;;7.00;6.25;;;;;-146.44;100.00;58906.56;5077346;28;45457;-65
2022/06/23 08:06:12;;;;;;;;;7.50;7.50;;;;;-146.44;100.00;58906.56;5077280;28;45482;-66
2022/06/23 08:08:39;;;;;;;;;9.50;7.50;;;;;-146.44;100.00;58906.56;5077790;28;45536;-66
2022/06/23 08:14:04;;;;;;;;;9.25;8.75;;;;;-146.44;100.00;58906.56;5077464;28;45490;-66
2022/06/23 08:16:49;;;;;;;;;10.00;8.00;;;;;-146.44;100.00;58906.56;5077444;28;45510;-66
2022/06/23 08:19:30;;;;;;;;;6.00;6.00;;;;;-146.44;100.00;58906.56;5077627;28;45490;-65
2022/06/23 08:22:00;;;;;;;;;13.00;9.00;;;;;-146.44;100.00;58906.56;5077481;28;45505;-67
2022/06/23 08:24:25;;;;;;;;;5.75;5.75;;;;;-146.44;100.00;58906.56;5076940;28;45432;-64
2022/06/23 08:26:59;;;;;;;;;7.00;7.00;;;;;-146.44;100.00;58906.56;5077090;28;45414;-66
2022/06/23 08:29:30;;;;;;;;;12.00;11.25;;;;;-146.44;100.00;58906.56;5077372;28;45540;-64
2022/06/23 08:31:58;;;;;;;;;10.75;10.00;;;;;-146.44;100.00;58906.56;5077003;28;45564;-66
2022/06/23 08:34:23;;;;;;;;;7.50;7.50;;;;;-146.44;100.00;58906.56;5076764;28;46822;-67
2022/06/23 08:36:53;;;;;;;;;9.75;7.00;;;;;-146.44;100.00;58906.56;5076984;28;45466;-66
2022/06/23 08:39:19;;;;;;;;;9.25;9.25;;;;;-146.44;100.00;58906.56;5076003;28;45529;-66
2022/06/23 08:42:09;;;;;;;;;4.00;4.00;;;;;-146.44;100.00;58906.56;5076815;28;45584;-64
2022/06/23 08:44:35;;;;;;;;;8.75;7.25;;;;;-146.44;100.00;58906.56;5076567;28;45394;-66
2022/06/23 08:47:20;;;;;;;;;6.00;6.00;;;;;-146.44;100.00;58906.56;5076374;28;45476;-65
2022/06/23 08:49:54;;;;;;;;;7.00;7.00;;;;;-146.44;100.00;58906.56;5076560;28;45425;-65
2022/06/23 08:53:03;;;;;;;;;9.25;9.25;;;;;-146.44;100.00;58906.56;5076780;28;45406;-65
2022/06/23 08:55:43;;;;;;;;;7.25;7.00;;;;;-146.44;100.00;58906.56;4974520;28;45564;-65
2022/06/23 08:58:23;;;;;;;;;10.00;10.00;;;;;-146.44;100.00;58906.56;4974601;28;45548;-65
2022/06/23 09:00:57;;;;;;;;;9.75;9.75;;;;;-146.44;100.00;58906.56;5044875;28;45629;-66
2022/06/23 09:03:32;;;;;;;;;8.00;7.00;;;;;-146.44;100.00;58906.56;5076717;28;45574;-66
2022/06/23 09:06:22;;;;;;;;;6.75;6.75;;;;;-146.44;100.00;58906.56;5076200;28;46452;-66
2022/06/23 09:09:03;;;;;;;;;7.00;7.00;;;;;-146.44;100.00;58906.56;5076594;28;45553;-65
2022/06/23 09:11:41;;;;;;;;;7.25;5.50;;;;;-146.44;100.00;58906.56;5076781;28;45407;-65
2022/06/23 09:14:25;;;;;;;;;12.00;11.25;;;;;-146.44;100.00;58906.56;5076401;28;45631;-65
2022/06/23 09:17:19;;;;;;;;;9.00;9.00;;;;;-146.44;100.00;58906.56;5076270;28;46093;-64
2022/06/23 09:19:48;;;;;;;;;6.25;6.25;;;;;-146.44;100.00;58906.56;5076476;28;45537;-64
2022/06/23 09:22:31;;;;;;;;;8.00;8.00;;;;;-146.44;100.00;58906.56;5076643;28;45492;-64
2022/06/23 09:25:06;;;;;;;;;7.25;6.25;;;;;-146.44;100.00;58906.56;5076282;28;45477;-65
2022/06/23 09:27:42;;;;;;;;;11.00;9.50;;;;;-146.44;100.00;58906.56;5076273;28;45549;-66
2022/06/23 09:30:22;;;;;;;;;8.50;8.00;;;;;-146.44;100.00;58906.56;5076423;28;45451;-65
2022/06/23 09:33:01;;;;;;;;;8.00;8.00;;;;;-146.44;100.00;58906.56;5076403;28;45610;-64
2022/06/23 09:35:54;;;;;;;;;9.25;8.25;;;;;-146.44;100.00;58906.56;5076469;28;45568;-65
2022/06/23 09:38:59;;;;;;;;;7.00;7.00;;;;;-146.44;100.00;58906.56;5076045;28;46069;-66
2022/06/23 09:42:04;;;;;;;;;9.00;9.00;;;;;-146.44;100.00;58906.56;5057750;28;45429;-65
2022/06/23 09:44:48;;;;;;;;;6.00;6.00;;;;;-146.44;100.00;58906.56;5075970;28;45556;-66
2022/06/23 09:47:54;;;;;;;;;10.00;9.50;;;;;-146.44;100.00;58906.56;5057660;28;45471;-65
2022/06/23 09:50:41;;;;;;;;;6.00;6.00;;;;;-146.44;100.00;58906.56;4985524;28;46079;-65
2022/06/23 09:53:36;;;;;;;;;10.00;9.00;;;;;-146.44;100.00;58906.56;5076134;28;45562;-65
2022/06/23 09:56:04;;;;;;;;;11.00;9.00;;;;;-146.44;100.00;58906.56;5076073;28;45490;-67
2022/06/23 09:59:00;;;;;;;;;9.00;7.75;;;;;-146.44;100.00;58906.56;5075699;28;45503;-64
2022/06/23 10:01:41;;;;;;;;;9.00;9.00;;;;;-146.44;100.00;58906.56;5075719;28;46213;-65
2022/06/23 10:04:37;;;;;;;;;9.75;8.50;;;;;-146.44;100.00;58906.56;5075843;28;45449;-66
2022/06/23 10:07:20;;;;;;;;;18.33;18.33;;;;;-146.44;100.00;58906.56;5057396;28;45527;-67
2022/06/23 10:09:48;;;;;;;;;13.25;13.25;;;;;-146.44;100.00;58906.56;5075365;28;45399;-65
2022/06/23 10:12:35;;;;;;;;;11.00;11.00;;;;;-146.44;100.00;58906.56;5056899;28;46646;-66
2022/06/23 10:15:39;;;;;;;;;7.75;7.75;;;;;-146.44;100.00;58906.56;5056826;28;45451;-65
2022/06/23 10:18:38;;;;;;;;;10.50;10.50;;;;;-146.44;100.00;58906.56;5036627;28;45547;-65
2022/06/23 10:21:22;;;;;;;;;9.25;9.25;;;;;-146.44;100.00;58906.56;5075258;28;45536;-65
2022/06/23 10:24:07;;;;;;;;;8.75;8.75;;;;;-146.44;100.00;58906.56;5075162;28;47338;-66
2022/06/23 10:27:01;;;;;;;;;9.75;9.00;;;;;-146.44;100.00;58906.56;5075142;28;45763;-64
2022/06/23 10:29:44;;;;;;;;;8.75;8.25;;;;;-146.44;100.00;58906.56;5074720;28;45544;-66
2022/06/23 10:32:28;;;;;;;;;8.75;8.75;;;;;-146.44;100.00;58906.56;5074822;28;45513;-65
2022/06/23 10:35:10;;;;;;;;;6.50;6.00;;;;;-146.44;100.00;58906.56;5056157;28;47231;-66
2022/06/23 10:37:44;;;;;;;;;8.25;8.25;;;;;-146.44;100.00;58906.56;5056534;28;45404;-64
2022/06/23 10:40:36;;;;;;;;;8.50;8.50;;;;;-146.44;100.00;58906.56;5074535;28;45337;-66
2022/06/23 10:43:10;;;;;;;;;9.75;9.75;;;;;-146.44;100.00;58906.56;5074674;28;45536;-65
2022/06/23 10:45:48;;;;;;;;;12.00;10.50;;;;;-146.44;100.00;58906.56;5074587;28;46777;-66
2022/06/23 10:48:22;;;;;;;;;9.75;8.25;;;;;-146.44;100.00;58906.56;5074437;28;45471;-65
2022/06/23 10:51:00;;;;;;;;;8.00;8.00;;;;;-146.44;100.00;58906.56;5074676;28;45554;-66
2022/06/23 10:53:56;;;;;;;;;7.75;7.75;;;;;-146.44;100.00;58906.56;5056340;28;45442;-65
2022/06/23 10:56:36;;;;;;;;;9.50;8.00;;;;;-146.44;100.00;58906.56;5074522;28;46325;-65
2022/06/23 10:59:32;;;;;;;;;6.25;6.25;;;;;-146.44;100.00;58906.56;5074255;28;45449;-64
2022/06/23 11:02:25;;;;;;;;;9.00;6.50;;;;;-146.44;100.00;58906.56;5073778;28;45492;-65
2022/06/23 11:05:02;;;;;;;;;8.25;7.25;;;;;-146.44;100.00;58906.56;5074403;28;45613;-64
2022/06/23 11:07:50;;;;;;;;;7.25;7.25;;;;;-146.44;100.00;58906.56;5086927;27;45829;-60
2022/06/23 11:10:43;;;;;;;;;6.75;6.75;;;;;-146.44;100.00;58906.56;5089406;27;45632;-65
2022/06/23 11:13:30;;;;;;;;;10.50;9.50;;;;;-146.44;100.00;58906.56;5076795;27;45607;-65
2022/06/23 11:16:20;;;;;;;;;8.50;8.50;;;;;-146.44;100.00;58906.56;5074310;27;45584;-63
2022/06/23 11:18:54;;;;;;;;;12.25;11.75;;;;;-146.44;100.00;58906.56;5046107;27;45502;-64
2022/06/23 11:21:54;;;;;;;;;9.75;7.75;;;;;-146.44;100.00;58906.56;5074685;28;45573;-65
2022/06/23 11:24:41;;;;;;;;;46.67;39.67;;;;;-146.44;100.00;58906.56;5075084;27;45496;-65
2022/06/23 11:27:37;;;;;;;;;13.25;13.25;;;;;-146.44;100.00;58906.56;5074281;28;45476;-64
2022/06/23 11:30:33;;;;;;;;;37.67;32.67;;;;;-146.44;100.00;58906.56;5092734;27;45567;-67
2022/06/23 11:33:24;;;;;;;;;12.25;10.25;;;;;-146.44;100.00;58906.56;5078928;27;45457;-63
2022/06/23 11:36:01;;;;;;;;;9.50;8.75;;;;;-146.44;100.00;58906.56;5087598;27;45462;-62
2022/06/23 11:38:47;;;;;;;;;7.75;7.00;;;;;-146.44;100.00;58906.56;5087536;27;45640;-62
2022/06/23 11:41:46;;;;;;;;;8.25;8.25;;;;;-146.44;100.00;58906.56;5084238;27;45613;-62
2022/06/23 11:45:00;;;;;;;;;8.00;8.00;;;;;-146.44;100.00;58906.56;5067096;28;45539;-62
2022/06/23 11:48:00;;;;;;;;;7.75;7.75;;;;;-146.44;100.00;58906.56;5045035;28;45458;-60
2022/06/23 11:50:26;;;;;;;;;8.50;7.50;;;;;-146.44;100.00;58906.56;5051780;28;45615;-61
2022/06/23 11:53:32;;;;;;;;;6.75;6.75;;;;;-146.44;100.00;58906.56;5082581;27;45490;-62
2022/06/23 11:56:06;;;;;;;;;8.00;8.00;;;;;-146.44;100.00;58906.56;5095401;27;45453;-61
2022/06/23 11:58:56;;;;;;;;;6.75;6.75;;;;;-146.44;100.00;58906.56;5095544;27;45459;-61
2022/06/23 12:01:24;;;;;;;;;6.75;6.75;;;;;-146.44;100.00;58906.56;5094869;27;45520;-62
2022/06/23 12:04:24;;;;;;;;;6.25;6.25;;;;;-146.44;100.00;58906.56;5095347;27;45494;-62
2022/06/23 12:07:17;;;;;;;;;9.00;8.00;;;;;-146.44;100.00;58906.56;5095191;27;45320;-63
2022/06/23 12:09:56;;;;;;;;;7.00;7.00;;;;;-146.44;100.00;58906.56;5077343;27;45500;-63
2022/06/23 12:12:22;;;;;;;;;10.00;8.00;;;;;-146.44;100.00;58906.56;5094732;27;45475;-60